Alleene, Arkansas
Current Conditions -  °F | °C
As of 12:53 AM on Friday 28 Nov 2014 (Local Time) from KDEQ Reporting Station
Haze Haze  
Wind Chill: -1°   Ceiling: Unl
Heat Index: -1°   Visibility: 6mi
Dew Point: -2°   Wind: 3mph
Humidity: 96%   Direction: 60°ENE
Pressure: 30.38"   Gusts: NA
Location:  33.77°N, 94.26°W
Report Text: KDEQ 280653Z AUTO 06003KT 6SM BR CLR M01/M02 A3038 RMK AO2 SLP287 T10111017
Loading
Personal Weather Stations






























Interactive Weather Map New forecast layout! Learn more

10-Day Weather Forecast

Advertisements
Track Severe Weather on mobile